sensor_id;sensor_type;location;lat;lon;timestamp;pressure;altitude;pressure_sealevel;temperature;humidity
8705;BME280;4389;41.932;25.904;2024-03-17T00:01:08;-16286.28;;;8.18;100.00
8705;BME280;4389;41.932;25.904;2024-03-17T00:03:35;-16286.53;;;8.19;100.00
8705;BME280;4389;41.932;25.904;2024-03-17T00:06:02;-16284.81;;;8.13;100.00
8705;BME280;4389;41.932;25.904;2024-03-17T00:08:29;-16282.16;;;8.03;100.00
8705;BME280;4389;41.932;25.904;2024-03-17T00:10:56;-16282.53;;;8.04;100.00
8705;BME280;4389;41.932;25.904;2024-03-17T00:13:23;-16280.00;;;7.95;100.00
8705;BME280;4389;41.932;25.904;2024-03-17T00:15:49;-16272.56;;;7.67;100.00
8705;BME280;4389;41.932;25.904;2024-03-17T00:18:16;-16272.81;;;7.68;100.00
8705;BME280;4389;41.932;25.904;2024-03-17T00:20:42;-16277.63;;;7.86;100.00
8705;BME280;4389;41.932;25.904;2024-03-17T00:23:10;-16277.34;;;7.85;100.00
8705;BME280;4389;41.932;25.904;2024-03-17T00:25:37;-16275.22;;;7.77;100.00
8705;BME280;4389;41.932;25.904;2024-03-17T00:28:05;-16279.88;;;7.94;100.00
8705;BME280;4389;41.932;25.904;2024-03-17T00:30:31;-16280.53;;;7.97;100.00
8705;BME280;4389;41.932;25.904;2024-03-17T00:32:59;-16278.69;;;7.90;100.00
8705;BME280;4389;41.932;25.904;2024-03-17T00:35:25;-16278.69;;;7.90;100.00
8705;BME280;4389;41.932;25.904;2024-03-17T00:37:52;-16278.94;;;7.91;100.00
8705;BME280;4389;41.932;25.904;2024-03-17T00:40:20;-16280.53;;;7.97;100.00
8705;BME280;4389;41.932;25.904;2024-03-17T00:42:47;-16280.28;;;7.96;100.00
8705;BME280;4389;41.932;25.904;2024-03-17T00:45:14;-16277.47;;;7.85;100.00
8705;BME280;4389;41.932;25.904;2024-03-17T00:47:41;-16280.53;;;7.97;100.00
8705;BME280;4389;41.932;25.904;2024-03-17T00:50:08;-16278.69;;;7.90;100.00
8705;BME280;4389;41.932;25.904;2024-03-17T00:52:37;-16274.03;;;7.72;100.00
8705;BME280;4389;41.932;25.904;2024-03-17T00:55:03;-16274.69;;;7.75;100.00
8705;BME280;4389;41.932;25.904;2024-03-17T00:57:32;-16272.81;;;7.68;100.00
8705;BME280;4389;41.932;25.904;2024-03-17T00:59:57;-16270.44;;;7.59;100.00
8705;BME280;4389;41.932;25.904;2024-03-17T01:02:25;-16268.56;;;7.52;100.00
8705;BME280;4389;41.932;25.904;2024-03-17T01:04:50;-16270.16;;;7.58;100.00
8705;BME280;4389;41.932;25.904;2024-03-17T01:07:17;-16267.63;;;7.48;100.00
8705;BME280;4389;41.932;25.904;2024-03-17T01:09:43;-16264.56;;;7.37;100.00
8705;BME280;4389;41.932;25.904;2024-03-17T01:12:10;-16264.56;;;7.37;100.00
8705;BME280;4389;41.932;25.904;2024-03-17T01:14:37;-16264.31;;;7.36;100.00
8705;BME280;4389;41.932;25.904;2024-03-17T01:17:04;-16264.16;;;7.35;100.00
8705;BME280;4389;41.932;25.904;2024-03-17T01:19:30;-16265.09;;;7.39;100.00
8705;BME280;4389;41.932;25.904;2024-03-17T01:21:57;-16266.03;;;7.42;100.00
8705;BME280;4389;41.932;25.904;2024-03-17T01:24:23;-16265.91;;;7.42;100.00
8705;BME280;4389;41.932;25.904;2024-03-17T01:26:51;-16264.16;;;7.35;100.00
8705;BME280;4389;41.932;25.904;2024-03-17T01:29:18;-16264.16;;;7.35;100.00
8705;BME280;4389;41.932;25.904;2024-03-17T01:31:46;-16264.69;;;7.37;100.00
8705;BME280;4389;41.932;25.904;2024-03-17T01:34:13;-16261.09;;;7.24;100.00
8705;BME280;4389;41.932;25.904;2024-03-17T01:36:40;-16261.38;;;7.25;100.00
8705;BME280;4389;41.932;25.904;2024-03-17T01:39:06;-16260.84;;;7.23;100.00
8705;BME280;4389;41.932;25.904;2024-03-17T01:41:32;-16263.75;;;7.34;100.00
8705;BME280;4389;41.932;25.904;2024-03-17T01:43:59;-16262.97;;;7.31;100.00
8705;BME280;4389;41.932;25.904;2024-03-17T01:46:25;-16264.03;;;7.35;100.00
8705;BME280;4389;41.932;25.904;2024-03-17T01:48:54;-16265.38;;;7.40;100.00
8705;BME280;4389;41.932;25.904;2024-03-17T01:51:21;-16264.03;;;7.35;100.00
8705;BME280;4389;41.932;25.904;2024-03-17T01:53:49;-16265.38;;;7.40;100.00
8705;BME280;4389;41.932;25.904;2024-03-17T01:56:16;-16262.16;;;7.28;100.00
8705;BME280;4389;41.932;25.904;2024-03-17T01:58:44;-16261.63;;;7.26;100.00
8705;BME280;4389;41.932;25.904;2024-03-17T02:01:10;-16264.97;;;7.38;100.00
8705;BME280;4389;41.932;25.904;2024-03-17T02:03:39;-16263.22;;;7.32;100.00
8705;BME280;4389;41.932;25.904;2024-03-17T02:06:07;-16262.44;;;7.29;100.00
8705;BME280;4389;41.932;25.904;2024-03-17T02:08:46;-16261.09;;;7.24;100.00
8705;BME280;4389;41.932;25.904;2024-03-17T02:11:24;-16262.31;;;7.28;100.00
8705;BME280;4389;41.932;25.904;2024-03-17T02:13:51;-16264.31;;;7.36;100.00
8705;BME280;4389;41.932;25.904;2024-03-17T02:16:17;-16263.09;;;7.31;100.00
8705;BME280;4389;41.932;25.904;2024-03-17T02:18:45;-16263.63;;;7.33;100.00
8705;BME280;4389;41.932;25.904;2024-03-17T02:21:13;-16264.56;;;7.37;100.00
8705;BME280;4389;41.932;25.904;2024-03-17T02:23:42;-16260.56;;;7.22;100.00
8705;BME280;4389;41.932;25.904;2024-03-17T02:26:09;-16264.56;;;7.37;100.00
8705;BME280;4389;41.932;25.904;2024-03-17T02:28:39;-16261.38;;;7.25;100.00
8705;BME280;4389;41.932;25.904;2024-03-17T02:31:08;-16260.84;;;7.23;100.00
8705;BME280;4389;41.932;25.904;2024-03-17T02:33:34;-16260.56;;;7.22;100.00
8705;BME280;4389;41.932;25.904;2024-03-17T02:36:00;-16261.22;;;7.24;100.00
8705;BME280;4389;41.932;25.904;2024-03-17T02:38:27;-16260.31;;;7.21;100.00
8705;BME280;4389;41.932;25.904;2024-03-17T02:41:13;-16261.09;;;7.24;100.00
8705;BME280;4389;41.932;25.904;2024-03-17T02:43:39;-16262.44;;;7.29;100.00
8705;BME280;4389;41.932;25.904;2024-03-17T02:46:06;-16263.50;;;7.33;100.00
8705;BME280;4389;41.932;25.904;2024-03-17T02:48:34;-16261.63;;;7.26;100.00
8705;BME280;4389;41.932;25.904;2024-03-17T02:51:02;-16258.44;;;7.14;100.00
8705;BME280;4389;41.932;25.904;2024-03-17T02:53:29;-16261.22;;;7.24;100.00
8705;BME280;4389;41.932;25.904;2024-03-17T02:55:56;-16262.69;;;7.30;100.00
8705;BME280;4389;41.932;25.904;2024-03-17T02:58:24;-16262.44;;;7.29;100.00
8705;BME280;4389;41.932;25.904;2024-03-17T03:00:51;-16263.50;;;7.33;100.00
8705;BME280;4389;41.932;25.904;2024-03-17T03:03:19;-16263.91;;;7.34;100.00
8705;BME280;4389;41.932;25.904;2024-03-17T03:05:46;-16260.16;;;7.20;100.00
8705;BME280;4389;41.932;25.904;2024-03-17T03:08:14;-16261.09;;;7.24;100.00
8705;BME280;4389;41.932;25.904;2024-03-17T03:10:43;-16263.22;;;7.32;100.00
8705;BME280;4389;41.932;25.904;2024-03-17T03:13:10;-16262.16;;;7.28;100.00
8705;BME280;4389;41.932;25.904;2024-03-17T03:15:39;-16261.22;;;7.24;100.00
8705;BME280;4389;41.932;25.904;2024-03-17T03:18:06;-16261.09;;;7.24;100.00
8705;BME280;4389;41.932;25.904;2024-03-17T03:20:32;-16257.63;;;7.11;100.00
8705;BME280;4389;41.932;25.904;2024-03-17T03:22:59;-16258.44;;;7.14;100.00
8705;BME280;4389;41.932;25.904;2024-03-17T03:25:27;-16258.84;;;7.15;100.00
8705;BME280;4389;41.932;25.904;2024-03-17T03:27:54;-16259.09;;;7.16;100.00
8705;BME280;4389;41.932;25.904;2024-03-17T03:30:23;-16257.91;;;7.12;100.00
8705;BME280;4389;41.932;25.904;2024-03-17T03:32:51;-16259.50;;;7.18;100.00
8705;BME280;4389;41.932;25.904;2024-03-17T03:35:18;-16257.63;;;7.11;100.00
8705;BME280;4389;41.932;25.904;2024-03-17T03:37:45;-16256.19;;;7.05;100.00
8705;BME280;4389;41.932;25.904;2024-03-17T03:40:12;-16257.91;;;7.12;100.00
8705;BME280;4389;41.932;25.904;2024-03-17T03:42:41;-16254.44;;;6.99;100.00
8705;BME280;4389;41.932;25.904;2024-03-17T03:45:09;-16250.44;;;6.84;100.00
8705;BME280;4389;41.932;25.904;2024-03-17T03:47:38;-16250.72;;;6.85;100.00
8705;BME280;4389;41.932;25.904;2024-03-17T03:50:07;-16252.72;;;6.92;100.00
8705;BME280;4389;41.932;25.904;2024-03-17T03:52:35;-16251.50;;;6.88;100.00
8705;BME280;4389;41.932;25.904;2024-03-17T03:55:03;-16254.03;;;6.97;100.00
8705;BME280;4389;41.932;25.904;2024-03-17T03:57:32;-16253.91;;;6.97;100.00
8705;BME280;4389;41.932;25.904;2024-03-17T03:59:59;-16253.13;;;6.94;100.00
8705;BME280;4389;41.932;25.904;2024-03-17T04:02:31;-16255.91;;;7.04;100.00
8705;BME280;4389;41.932;25.904;2024-03-17T04:04:59;-16256.19;;;7.05;100.00
8705;BME280;4389;41.932;25.904;2024-03-17T04:07:27;-16254.84;;;7.00;100.00
8705;BME280;4389;41.932;25.904;2024-03-17T04:09:54;-16253.91;;;6.97;100.00
8705;BME280;4389;41.932;25.904;2024-03-17T04:12:21;-16254.19;;;6.98;100.00
8705;BME280;4389;41.932;25.904;2024-03-17T04:14:48;-16249.38;;;6.80;100.00
8705;BME280;4389;41.932;25.904;2024-03-17T04:17:18;-16243.66;;;6.58;100.00
8705;BME280;4389;41.932;25.904;2024-03-17T04:19:47;-16241.38;;;6.50;100.00
8705;BME280;4389;41.932;25.904;2024-03-17T04:22:14;-16240.44;;;6.46;100.00
8705;BME280;4389;41.932;25.904;2024-03-17T04:24:43;-16232.59;;;6.17;100.00
8705;BME280;4389;41.932;25.904;2024-03-17T04:27:10;-16233.13;;;6.19;100.00
8705;BME280;4389;41.932;25.904;2024-03-17T04:29:37;-16232.06;;;6.15;100.00
8705;BME280;4389;41.932;25.904;2024-03-17T04:32:05;-16233.94;;;6.22;100.00
8705;BME280;4389;41.932;25.904;2024-03-17T04:34:32;-16236.31;;;6.31;100.00
8705;BME280;4389;41.932;25.904;2024-03-17T04:36:58;-16240.19;;;6.45;100.00
8705;BME280;4389;41.932;25.904;2024-03-17T04:39:25;-16242.31;;;6.53;100.00
8705;BME280;4389;41.932;25.904;2024-03-17T04:41:53;-16242.72;;;6.55;100.00
8705;BME280;4389;41.932;25.904;2024-03-17T04:44:20;-16245.66;;;6.66;100.00
8705;BME280;4389;41.932;25.904;2024-03-17T04:46:47;-16245.91;;;6.67;100.00
8705;BME280;4389;41.932;25.904;2024-03-17T04:49:14;-16243.78;;;6.59;100.00
8705;BME280;4389;41.932;25.904;2024-03-17T04:51:40;-16240.06;;;6.45;100.00
8705;BME280;4389;41.932;25.904;2024-03-17T04:54:07;-16238.72;;;6.40;100.00
8705;BME280;4389;41.932;25.904;2024-03-17T04:56:34;-16240.06;;;6.45;100.00
8705;BME280;4389;41.932;25.904;2024-03-17T04:59:02;-16236.84;;;6.33;100.00
8705;BME280;4389;41.932;25.904;2024-03-17T05:01:30;-16239.66;;;6.43;100.00
8705;BME280;4389;41.932;25.904;2024-03-17T05:04:01;-16246.97;;;6.71;100.00
8705;BME280;4389;41.932;25.904;2024-03-17T05:06:29;-16250.19;;;6.83;100.00
8705;BME280;4389;41.932;25.904;2024-03-17T05:08:56;-16250.19;;;6.83;100.00
8705;BME280;4389;41.932;25.904;2024-03-17T05:11:23;-16254.03;;;6.97;100.00
8705;BME280;4389;41.932;25.904;2024-03-17T05:13:50;-16257.25;;;7.09;100.00
8705;BME280;4389;41.932;25.904;2024-03-17T05:16:18;-16259.50;;;7.18;100.00
8705;BME280;4389;41.932;25.904;2024-03-17T05:18:48;-16260.97;;;7.23;100.00
8705;BME280;4389;41.932;25.904;2024-03-17T05:21:15;-16256.03;;;7.05;100.00
8705;BME280;4389;41.932;25.904;2024-03-17T05:23:42;-16257.63;;;7.11;100.00
8705;BME280;4389;41.932;25.904;2024-03-17T05:26:09;-16257.63;;;7.11;100.00
8705;BME280;4389;41.932;25.904;2024-03-17T05:28:35;-16257.50;;;7.10;100.00
8705;BME280;4389;41.932;25.904;2024-03-17T05:31:02;-16262.84;;;7.30;100.00
8705;BME280;4389;41.932;25.904;2024-03-17T05:33:31;-16269.63;;;7.56;100.00
8705;BME280;4389;41.932;25.904;2024-03-17T05:35:59;-16272.28;;;7.66;100.00
8705;BME280;4389;41.932;25.904;2024-03-17T05:38:29;-16278.94;;;7.91;100.00
8705;BME280;4389;41.932;25.904;2024-03-17T05:40:57;-16282.41;;;8.04;100.00
8705;BME280;4389;41.932;25.904;2024-03-17T05:43:26;-16286.13;;;8.18;100.00
8705;BME280;4389;41.932;25.904;2024-03-17T05:45:53;-16289.88;;;8.32;100.00
8705;BME280;4389;41.932;25.904;2024-03-17T05:48:20;-16288.00;;;8.25;100.00
8705;BME280;4389;41.932;25.904;2024-03-17T05:50:49;-16290.00;;;8.32;100.00
8705;BME280;4389;41.932;25.904;2024-03-17T05:53:16;-16292.00;;;8.40;100.00
8705;BME280;4389;41.932;25.904;2024-03-17T05:55:44;-16286.94;;;8.21;100.00
8705;BME280;4389;41.932;25.904;2024-03-17T05:58:11;-16288.16;;;8.25;100.00
8705;BME280;4389;41.932;25.904;2024-03-17T06:00:39;-16290.66;;;8.35;100.00
8705;BME280;4389;41.932;25.904;2024-03-17T06:03:06;-16290.28;;;8.33;100.00
8705;BME280;4389;41.932;25.904;2024-03-17T06:05:33;-16294.41;;;8.49;100.00
8705;BME280;4389;41.932;25.904;2024-03-17T06:08:02;-16293.88;;;8.47;100.00
8705;BME280;4389;41.932;25.904;2024-03-17T06:10:30;-16300.91;;;8.73;100.00
8705;BME280;4389;41.932;25.904;2024-03-17T06:12:57;-16304.25;;;8.86;100.00
8705;BME280;4389;41.932;25.904;2024-03-17T06:15:24;-16311.16;;;9.11;100.00
8705;BME280;4389;41.932;25.904;2024-03-17T06:17:51;-16316.50;;;9.31;100.00
8705;BME280;4389;41.932;25.904;2024-03-17T06:20:18;-16318.88;;;9.40;100.00
8705;BME280;4389;41.932;25.904;2024-03-17T06:22:45;-16327.94;;;9.74;100.00
8705;BME280;4389;41.932;25.904;2024-03-17T06:25:13;-16331.41;;;9.87;100.00
8705;BME280;4389;41.932;25.904;2024-03-17T06:27:40;-16326.47;;;9.69;100.00
8705;BME280;4389;41.932;25.904;2024-03-17T06:30:11;-16331.41;;;9.87;100.00
8705;BME280;4389;41.932;25.904;2024-03-17T06:32:39;-16336.47;;;10.06;100.00
8705;BME280;4389;41.932;25.904;2024-03-17T06:35:07;-16344.44;;;10.36;100.00
8705;BME280;4389;41.932;25.904;2024-03-17T06:37:34;-16344.97;;;10.38;100.00
8705;BME280;4389;41.932;25.904;2024-03-17T06:40:01;-16349.22;;;10.54;100.00
8705;BME280;4389;41.932;25.904;2024-03-17T06:42:30;-16350.81;;;10.60;100.00
8705;BME280;4389;41.932;25.904;2024-03-17T06:44:57;-16355.75;;;10.79;100.00
8705;BME280;4389;41.932;25.904;2024-03-17T06:47:24;-16363.59;;;11.08;100.00
8705;BME280;4389;41.932;25.904;2024-03-17T06:49:51;-16365.44;;;11.15;100.00
8705;BME280;4389;41.932;25.904;2024-03-17T06:52:18;-16371.03;;;11.36;100.00
8705;BME280;4389;41.932;25.904;2024-03-17T06:54:47;-16369.69;;;11.31;100.00
8705;BME280;4389;41.932;25.904;2024-03-17T06:57:15;-16365.59;;;11.16;100.00
8705;BME280;4389;41.932;25.904;2024-03-17T06:59:43;-16361.47;;;11.00;100.00
8705;BME280;4389;41.932;25.904;2024-03-17T07:02:11;-16356.28;;;10.81;100.00
8705;BME280;4389;41.932;25.904;2024-03-17T07:04:42;-16358.25;;;10.88;100.00
8705;BME280;4389;41.932;25.904;2024-03-17T07:07:10;-16358.25;;;10.88;100.00
8705;BME280;4389;41.932;25.904;2024-03-17T07:09:37;-16354.53;;;10.74;100.00
8705;BME280;4389;41.932;25.904;2024-03-17T07:12:05;-16351.75;;;10.64;100.00
8705;BME280;4389;41.932;25.904;2024-03-17T07:14:35;-16362.00;;;11.02;100.00
8705;BME280;4389;41.932;25.904;2024-03-17T07:17:03;-16369.69;;;11.31;100.00
8705;BME280;4389;41.932;25.904;2024-03-17T07:19:30;-16369.69;;;11.31;100.00
8705;BME280;4389;41.932;25.904;2024-03-17T07:21:58;-16374.50;;;11.49;100.00
8705;BME280;4389;41.932;25.904;2024-03-17T07:24:24;-16375.81;;;11.54;100.00
8705;BME280;4389;41.932;25.904;2024-03-17T07:26:53;-16374.34;;;11.49;100.00
8705;BME280;4389;41.932;25.904;2024-03-17T07:29:20;-16371.81;;;11.39;100.00
8705;BME280;4389;41.932;25.904;2024-03-17T07:31:47;-16377.81;;;11.62;100.00
8705;BME280;4389;41.932;25.904;2024-03-17T07:34:15;-16382.19;;;11.78;100.00
8705;BME280;4389;41.932;25.904;2024-03-17T07:36:42;-16391.78;;;12.14;98.76
8705;BME280;4389;41.932;25.904;2024-03-17T07:39:09;-16393.50;;;12.21;97.49
8705;BME280;4389;41.932;25.904;2024-03-17T07:41:37;-16396.81;;;12.33;96.14
8705;BME280;4389;41.932;25.904;2024-03-17T07:44:04;-16395.50;;;12.28;96.75
8705;BME280;4389;41.932;25.904;2024-03-17T07:46:31;-16402.00;;;12.53;97.43
8705;BME280;4389;41.932;25.904;2024-03-17T07:48:58;-16408.25;;;12.76;95.42
8705;BME280;4389;41.932;25.904;2024-03-17T07:51:26;-16410.09;;;12.83;94.12
8705;BME280;4389;41.932;25.904;2024-03-17T07:53:53;-16404.78;;;12.63;95.00
8705;BME280;4389;41.932;25.904;2024-03-17T07:56:20;-16407.59;;;12.74;95.46
8705;BME280;4389;41.932;25.904;2024-03-17T07:58:46;-16417.94;;;13.13;95.11
8705;BME280;4389;41.932;25.904;2024-03-17T08:01:16;-16418.34;;;13.14;91.82
8705;BME280;4389;41.932;25.904;2024-03-17T08:03:45;-16420.22;;;13.21;91.66
8705;BME280;4389;41.932;25.904;2024-03-17T08:06:12;-16424.19;;;13.36;90.43
8705;BME280;4389;41.932;25.904;2024-03-17T08:08:40;-16432.41;;;13.67;91.00
8705;BME280;4389;41.932;25.904;2024-03-17T08:11:08;-16431.50;;;13.63;88.58
8705;BME280;4389;41.932;25.904;2024-03-17T08:13:34;-16421.28;;;13.25;91.19
8705;BME280;4389;41.932;25.904;2024-03-17T08:16:03;-16436.00;;;13.80;90.43
8705;BME280;4389;41.932;25.904;2024-03-17T08:18:31;-16446.50;;;14.20;87.40
8705;BME280;4389;41.932;25.904;2024-03-17T08:20:59;-16449.94;;;14.33;85.00
8705;BME280;4389;41.932;25.904;2024-03-17T08:23:26;-16458.72;;;14.66;82.53
8705;BME280;4389;41.932;25.904;2024-03-17T08:25:55;-16468.53;;;15.03;80.17
8705;BME280;4389;41.932;25.904;2024-03-17T08:28:23;-16457.91;;;14.63;80.22
8705;BME280;4389;41.932;25.904;2024-03-17T08:30:53;-16447.56;;;14.24;83.60
8705;BME280;4389;41.932;25.904;2024-03-17T08:33:21;-16440.66;;;13.98;86.67
8705;BME280;4389;41.932;25.904;2024-03-17T08:35:55;-16452.88;;;14.44;84.57
8705;BME280;4389;41.932;25.904;2024-03-17T08:38:22;-16459.63;;;14.69;84.16
8705;BME280;4389;41.932;25.904;2024-03-17T08:40:49;-16456.84;;;14.59;81.73
8705;BME280;4389;41.932;25.904;2024-03-17T08:43:18;-16454.47;;;14.50;82.93
8705;BME280;4389;41.932;25.904;2024-03-17T08:45:45;-16450.47;;;14.35;83.86
8705;BME280;4389;41.932;25.904;2024-03-17T08:48:12;-16454.19;;;14.49;84.00
8705;BME280;4389;41.932;25.904;2024-03-17T08:50:39;-16454.72;;;14.51;83.99
8705;BME280;4389;41.932;25.904;2024-03-17T08:53:05;-16460.56;;;14.73;83.57
8705;BME280;4389;41.932;25.904;2024-03-17T08:55:32;-16460.84;;;14.74;82.61
8705;BME280;4389;41.932;25.904;2024-03-17T08:57:59;-16456.31;;;14.57;83.57
8705;BME280;4389;41.932;25.904;2024-03-17T09:00:27;-16462.28;;;14.79;84.21
8705;BME280;4389;41.932;25.904;2024-03-17T09:02:55;-16457.66;;;14.62;83.17
8705;BME280;4389;41.932;25.904;2024-03-17T09:05:22;-16451.16;;;14.37;84.55
8705;BME280;4389;41.932;25.904;2024-03-17T09:07:49;-16443.56;;;14.09;88.26
8705;BME280;4389;41.932;25.904;2024-03-17T09:10:16;-16440.91;;;13.99;88.48
8705;BME280;4389;41.932;25.904;2024-03-17T09:12:43;-16444.63;;;14.13;88.82
8705;BME280;4389;41.932;25.904;2024-03-17T09:15:12;-16445.69;;;14.17;88.36
8705;BME280;4389;41.932;25.904;2024-03-17T09:17:41;-16446.75;;;14.21;88.23
8705;BME280;4389;41.932;25.904;2024-03-17T09:20:11;-16445.84;;;14.17;88.65
8705;BME280;4389;41.932;25.904;2024-03-17T09:22:40;-16457.13;;;14.60;86.91
8705;BME280;4389;41.932;25.904;2024-03-17T09:25:07;-16467.47;;;14.99;84.12
8705;BME280;4389;41.932;25.904;2024-03-17T09:27:34;-16472.25;;;15.17;83.13
8705;BME280;4389;41.932;25.904;2024-03-17T09:30:02;-16466.94;;;14.97;83.05
8705;BME280;4389;41.932;25.904;2024-03-17T09:32:31;-16467.22;;;14.98;83.42
8705;BME280;4389;41.932;25.904;2024-03-17T09:34:59;-16462.81;;;14.81;84.78
8705;BME280;4389;41.932;25.904;2024-03-17T09:37:26;-16457.38;;;14.61;85.42
8705;BME280;4389;41.932;25.904;2024-03-17T09:39:53;-16468.00;;;15.01;84.46
8705;BME280;4389;41.932;25.904;2024-03-17T09:42:23;-16471.97;;;15.16;83.70
8705;BME280;4389;41.932;25.904;2024-03-17T09:44:50;-16468.25;;;15.02;83.09
8705;BME280;4389;41.932;25.904;2024-03-17T09:47:19;-16466.41;;;14.95;84.46
8705;BME280;4389;41.932;25.904;2024-03-17T09:49:47;-16462.44;;;14.80;84.68
8705;BME280;4389;41.932;25.904;2024-03-17T09:52:20;-16462.28;;;14.79;87.00
8705;BME280;4389;41.932;25.904;2024-03-17T09:54:51;-16466.53;;;14.95;84.43
8705;BME280;4389;41.932;25.904;2024-03-17T09:57:22;-16465.22;;;14.90;84.12
8705;BME280;4389;41.932;25.904;2024-03-17T09:59:52;-16460.84;;;14.74;86.36
8705;BME280;4389;41.932;25.904;2024-03-17T10:02:21;-16461.63;;;14.77;86.47
8705;BME280;4389;41.932;25.904;2024-03-17T10:04:48;-16463.50;;;14.84;85.37
8705;BME280;4389;41.932;25.904;2024-03-17T10:07:15;-16470.38;;;15.10;84.56
8705;BME280;4389;41.932;25.904;2024-03-17T10:09:43;-16467.06;;;14.97;85.73
8705;BME280;4389;41.932;25.904;2024-03-17T10:12:26;-16461.91;;;14.78;85.55
8705;BME280;4389;41.932;25.904;2024-03-17T10:15:00;-16459.09;;;14.67;86.32
8705;BME280;4389;41.932;25.904;2024-03-17T10:17:31;-16460.84;;;14.74;86.37
8705;BME280;4389;41.932;25.904;2024-03-17T10:20:15;-16468.53;;;15.03;85.72
8705;BME280;4389;41.932;25.904;2024-03-17T10:22:58;-16474.63;;;15.26;87.11
8705;BME280;4389;41.932;25.904;2024-03-17T10:25:27;-16475.81;;;15.30;87.03
8705;BME280;4389;41.932;25.904;2024-03-17T10:27:55;-16471.72;;;15.15;86.52
8705;BME280;4389;41.932;25.904;2024-03-17T10:30:23;-16469.59;;;15.07;86.09
8705;BME280;4389;41.932;25.904;2024-03-17T10:32:52;-16471.44;;;15.14;85.60
8705;BME280;4389;41.932;25.904;2024-03-17T10:35:28;-16475.03;;;15.27;85.38
8705;BME280;4389;41.932;25.904;2024-03-17T10:37:56;-16478.63;;;15.41;86.66
8705;BME280;4389;41.932;25.904;2024-03-17T10:40:24;-16481.13;;;15.50;84.43
8705;BME280;4389;41.932;25.904;2024-03-17T10:42:53;-16483.13;;;15.58;83.69
8705;BME280;4389;41.932;25.904;2024-03-17T10:45:20;-16479.56;;;15.44;83.12
8705;BME280;4389;41.932;25.904;2024-03-17T10:47:49;-16478.22;;;15.39;84.14
8705;BME280;4389;41.932;25.904;2024-03-17T10:50:18;-16486.97;;;15.72;81.77
8705;BME280;4389;41.932;25.904;2024-03-17T10:52:47;-16490.81;;;15.87;80.72
8705;BME280;4389;41.932;25.904;2024-03-17T10:55:21;-16483.25;;;15.58;81.23
8705;BME280;4389;41.932;25.904;2024-03-17T10:57:50;-16481.66;;;15.52;82.81
8705;BME280;4389;41.932;25.904;2024-03-17T11:00:19;-16486.06;;;15.69;82.63
8705;BME280;4389;41.932;25.904;2024-03-17T11:02:48;-16483.13;;;15.58;83.69
8705;BME280;4389;41.932;25.904;2024-03-17T11:05:18;-16480.22;;;15.47;83.49
8705;BME280;4389;41.932;25.904;2024-03-17T11:07:47;-16485.53;;;15.67;83.17
8705;BME280;4389;41.932;25.904;2024-03-17T11:10:16;-16492.69;;;15.94;81.23
8705;BME280;4389;41.932;25.904;2024-03-17T11:12:46;-16496.94;;;16.10;78.46
8705;BME280;4389;41.932;25.904;2024-03-17T11:15:37;-16500.91;;;16.25;77.51
8705;BME280;4389;41.932;25.904;2024-03-17T11:18:33;-16502.22;;;16.30;77.53
8705;BME280;4389;41.932;25.904;2024-03-17T11:21:02;-16508.59;;;16.54;76.51
8705;BME280;4389;41.932;25.904;2024-03-17T11:23:34;-16499.03;;;16.18;76.26
8705;BME280;4389;41.932;25.904;2024-03-17T11:26:04;-16499.56;;;16.20;74.65
8705;BME280;4389;41.932;25.904;2024-03-17T11:28:48;-16498.50;;;16.16;77.32
8705;BME280;4389;41.932;25.904;2024-03-17T11:31:37;-16498.50;;;16.16;76.02
8705;BME280;4389;41.932;25.904;2024-03-17T11:34:07;-16507.53;;;16.50;74.69
8705;BME280;4389;41.932;25.904;2024-03-17T11:36:52;-16503.16;;;16.33;74.07
8705;BME280;4389;41.932;25.904;2024-03-17T11:39:20;-16501.16;;;16.26;72.50
8705;BME280;4389;41.932;25.904;2024-03-17T11:41:49;-16507.53;;;16.50;71.97
8705;BME280;4389;41.932;25.904;2024-03-17T11:44:24;-16505.81;;;16.43;73.27
8705;BME280;4389;41.932;25.904;2024-03-17T11:46:54;-16499.03;;;16.18;71.60
8705;BME280;4389;41.932;25.904;2024-03-17T11:49:23;-16489.22;;;15.81;69.72
8705;BME280;4389;41.932;25.904;2024-03-17T11:51:49;-16492.41;;;15.93;68.45
8705;BME280;4389;41.932;25.904;2024-03-17T11:54:17;-16497.97;;;16.14;66.84
8705;BME280;4389;41.932;25.904;2024-03-17T11:56:45;-16501.56;;;16.27;63.42
8705;BME280;4389;41.932;25.904;2024-03-17T11:59:12;-16506.22;;;16.45;59.88
8705;BME280;4389;41.932;25.904;2024-03-17T12:01:39;-16504.88;;;16.40;59.58
8705;BME280;4389;41.932;25.904;2024-03-17T12:04:07;-16507.00;;;16.48;62.25
8705;BME280;4389;41.932;25.904;2024-03-17T12:06:33;-16509.66;;;16.58;60.12
8705;BME280;4389;41.932;25.904;2024-03-17T12:09:08;-16507.28;;;16.49;59.99
8705;BME280;4389;41.932;25.904;2024-03-17T12:11:35;-16507.13;;;16.48;58.62
8705;BME280;4389;41.932;25.904;2024-03-17T12:14:18;-16510.06;;;16.59;59.73
8705;BME280;4389;41.932;25.904;2024-03-17T12:16:51;-16513.09;;;16.71;60.85
8705;BME280;4389;41.932;25.904;2024-03-17T12:19:20;-16514.44;;;16.76;57.68
8705;BME280;4389;41.932;25.904;2024-03-17T12:21:48;-16516.56;;;16.84;57.78
8705;BME280;4389;41.932;25.904;2024-03-17T12:24:17;-16514.44;;;16.76;57.45
8705;BME280;4389;41.932;25.904;2024-03-17T12:26:45;-16512.03;;;16.67;56.84
8705;BME280;4389;41.932;25.904;2024-03-17T12:29:22;-16517.47;;;16.87;56.51
8705;BME280;4389;41.932;25.904;2024-03-17T12:31:50;-16515.63;;;16.80;54.65
8705;BME280;4389;41.932;25.904;2024-03-17T12:34:19;-16518.41;;;16.91;53.63
8705;BME280;4389;41.932;25.904;2024-03-17T12:36:45;-16520.41;;;16.98;53.14
8705;BME280;4389;41.932;25.904;2024-03-17T12:39:19;-16526.63;;;17.22;50.55
8705;BME280;4389;41.932;25.904;2024-03-17T12:42:01;-16533.00;;;17.46;50.94
8705;BME280;4389;41.932;25.904;2024-03-17T12:44:27;-16535.63;;;17.56;50.48
8705;BME280;4389;41.932;25.904;2024-03-17T12:46:55;-16535.91;;;17.57;48.46
8705;BME280;4389;41.932;25.904;2024-03-17T12:49:23;-16527.69;;;17.26;49.99
8705;BME280;4389;41.932;25.904;2024-03-17T12:51:51;-16529.41;;;17.32;50.23
8705;BME280;4389;41.932;25.904;2024-03-17T12:54:21;-16535.91;;;17.57;48.99
8705;BME280;4389;41.932;25.904;2024-03-17T12:56:50;-16538.94;;;17.68;47.71
8705;BME280;4389;41.932;25.904;2024-03-17T12:59:39;-16535.25;;;17.54;47.30
8705;BME280;4389;41.932;25.904;2024-03-17T13:02:23;-16532.06;;;17.42;49.27
8705;BME280;4389;41.932;25.904;2024-03-17T13:05:16;-16530.59;;;17.37;49.17
8705;BME280;4389;41.932;25.904;2024-03-17T13:07:43;-16539.34;;;17.70;49.65